Time;durP1;ratioP1;P1;durP2;ratioP2;P2;SDS_P1;SDS_P2;PMS_P1;PMS_P2;Temp;Humidity;BMP_temperature;BMP_pressure;BME280_temperature;BME280_humidity;BME280_pressure;Samples;Min_cycle;Max_cycle;Signal;HPM_P1;HPM_P2
2022/04/11 00:01:57;;;;;;;6.73;2.00;;;5.40;99.90;;;;;;5054598;28;20190;-67
2022/04/11 00:04:23;;;;;;;5.03;1.77;;;5.40;99.90;;;;;;5048032;28;20209;-66
2022/04/11 00:06:48;;;;;;;7.07;1.67;;;5.40;99.90;;;;;;5060063;28;20198;-67
2022/04/11 00:09:14;;;;;;;1.83;1.57;;;5.40;99.90;;;;;;5052259;28;20202;-67
2022/04/11 00:11:39;;;;;;;2.23;1.97;;;5.40;99.90;;;;;;5064223;28;20225;-67
2022/04/11 00:14:05;;;;;;;3.03;1.63;;;5.30;99.90;;;;;;5054197;28;20203;-67
2022/04/11 00:16:31;;;;;;;4.73;1.90;;;5.30;99.90;;;;;;5054282;28;20186;-66
2022/04/11 00:18:57;;;;;;;4.40;1.80;;;5.20;99.90;;;;;;5059204;28;20346;-67
2022/04/11 00:21:22;;;;;;;3.83;3.17;;;5.20;99.90;;;;;;5056283;28;20214;-67
2022/04/11 00:23:48;;;;;;;2.23;1.50;;;5.20;99.90;;;;;;5050361;28;20203;-67
2022/04/11 00:26:13;;;;;;;3.73;1.50;;;5.20;99.90;;;;;;5057743;28;20623;-66
2022/04/11 00:28:39;;;;;;;2.97;1.87;;;5.10;99.90;;;;;;5063670;28;20194;-66
2022/04/11 00:31:04;;;;;;;1.83;1.73;;;5.10;99.90;;;;;;5048080;28;20199;-67
2022/04/11 00:33:30;;;;;;;5.17;2.10;;;5.00;99.90;;;;;;5060168;28;20207;-67
2022/04/11 00:35:55;;;;;;;2.13;1.70;;;5.00;99.90;;;;;;5058285;28;20230;-67
2022/04/11 00:38:21;;;;;;;4.17;2.00;;;5.00;99.90;;;;;;5056979;28;20233;-67
2022/04/11 00:40:46;;;;;;;4.10;1.77;;;5.00;99.90;;;;;;5067553;28;20229;-67
2022/04/11 00:43:30;;;;;;;6.20;1.70;;;4.90;99.90;;;;;;5066215;28;20236;-67
2022/04/11 00:45:56;;;;;;;7.70;1.53;;;4.80;99.90;;;;;;5067003;28;20193;-67
2022/04/11 00:48:22;;;;;;;6.53;2.33;;;4.80;99.90;;;;;;5065777;28;20199;-68
2022/04/11 00:50:48;;;;;;;7.03;1.60;;;4.80;99.90;;;;;;5064376;28;20250;-68
2022/04/11 00:53:14;;;;;;;6.20;2.10;;;4.80;99.90;;;;;;5064322;28;20230;-68
2022/04/11 00:55:39;;;;;;;4.67;1.63;;;4.60;99.90;;;;;;5066170;28;20815;-68
2022/04/11 00:58:05;;;;;;;3.30;1.37;;;4.60;99.90;;;;;;5056605;28;20250;-69
2022/04/11 01:00:31;;;;;;;2.47;1.50;;;4.50;99.90;;;;;;5065202;28;20202;-68
2022/04/11 01:02:56;;;;;;;4.80;1.40;;;4.50;99.90;;;;;;5061906;28;20194;-68
2022/04/11 01:05:22;;;;;;;4.30;1.60;;;4.50;99.90;;;;;;5066884;28;20706;-68
2022/04/11 01:07:48;;;;;;;5.20;2.10;;;4.50;99.90;;;;;;5061949;28;20288;-68
2022/04/11 01:10:14;;;;;;;8.27;1.80;;;4.40;99.90;;;;;;5066936;28;20186;-69
2022/04/11 01:12:41;;;;;;;1.70;1.60;;;4.40;99.90;;;;;;5059981;28;20197;-69
2022/04/11 01:15:07;;;;;;;6.23;2.00;;;4.30;99.90;;;;;;5067015;28;20540;-69
2022/04/11 01:17:37;;;;;;;3.37;1.80;;;4.30;99.90;;;;;;5063730;28;20713;-69
2022/04/11 01:20:10;;;;;;;3.80;1.93;;;4.30;99.90;;;;;;5064012;28;20206;-69
2022/04/11 01:22:36;;;;;;;4.43;1.53;;;4.20;99.90;;;;;;5056965;28;20210;-67
2022/04/11 01:25:03;;;;;;;6.93;1.97;;;4.20;99.90;;;;;;5063218;28;20201;-67
2022/04/11 01:27:30;;;;;;;5.03;1.80;;;4.20;99.90;;;;;;5057667;28;20202;-63
2022/04/11 01:29:55;;;;;;;5.70;2.40;;;4.10;99.90;;;;;;5066769;28;20648;-65
2022/04/11 01:32:20;;;;;;;6.50;1.80;;;4.10;99.90;;;;;;5064356;28;20251;-63
2022/04/11 01:34:46;;;;;;;4.07;1.33;;;4.00;99.90;;;;;;5066289;28;20559;-63
2022/04/11 01:37:12;;;;;;;3.60;1.83;;;4.00;99.90;;;;;;5062626;28;20197;-62
2022/04/11 01:39:37;;;;;;;4.27;1.70;;;3.90;99.90;;;;;;5063910;28;20598;-63
2022/04/11 01:42:03;;;;;;;4.23;2.23;;;3.90;99.90;;;;;;5065673;28;20211;-63
2022/04/11 01:44:29;;;;;;;4.10;1.87;;;3.80;99.90;;;;;;5066194;28;20907;-63
2022/04/11 01:46:54;;;;;;;4.63;2.03;;;3.80;99.90;;;;;;5063412;28;20182;-63
2022/04/11 01:49:19;;;;;;;5.27;1.87;;;3.80;99.90;;;;;;5061738;28;20201;-63
2022/04/11 01:51:45;;;;;;;4.33;1.77;;;3.80;99.90;;;;;;5060578;28;20233;-62
2022/04/11 01:54:10;;;;;;;4.60;1.77;;;3.70;99.90;;;;;;5064695;28;20653;-64
2022/04/11 01:56:36;;;;;;;4.87;2.30;;;3.80;99.90;;;;;;5060431;28;20186;-65
2022/04/11 01:59:01;;;;;;;4.53;2.20;;;3.80;99.90;;;;;;5055997;28;20236;-65
2022/04/11 02:01:27;;;;;;;6.57;2.10;;;3.80;99.90;;;;;;5063266;28;20688;-64
2022/04/11 02:03:52;;;;;;;6.40;1.80;;;3.70;99.90;;;;;;5057708;28;20194;-64
2022/04/11 02:06:18;;;;;;;6.57;1.80;;;3.70;99.90;;;;;;5063611;28;20300;-64
2022/04/11 02:08:43;;;;;;;4.73;1.87;;;3.70;99.90;;;;;;5058319;28;20196;-64
2022/04/11 02:11:10;;;;;;;4.13;1.77;;;3.70;99.90;;;;;;5051843;28;20235;-64
2022/04/11 02:13:36;;;;;;;3.57;1.40;;;3.70;99.90;;;;;;5058850;28;20220;-64
2022/04/11 02:16:01;;;;;;;3.00;1.30;;;3.70;99.90;;;;;;5058310;28;20680;-64
2022/04/11 02:18:27;;;;;;;4.07;1.80;;;3.70;99.90;;;;;;5066273;28;20202;-64
2022/04/11 02:20:53;;;;;;;2.83;1.93;;;3.70;99.90;;;;;;5049292;28;20226;-65
2022/04/11 02:23:18;;;;;;;1.90;1.50;;;3.70;99.90;;;;;;5058138;28;20182;-64
2022/04/11 02:25:43;;;;;;;8.43;1.60;;;3.70;99.90;;;;;;5048622;28;20946;-65
2022/04/11 02:28:10;;;;;;;6.03;1.67;;;3.70;99.90;;;;;;5054316;28;20197;-65
2022/04/11 02:30:36;;;;;;;3.63;2.03;;;3.70;99.90;;;;;;5047116;28;20202;-66
2022/04/11 02:33:01;;;;;;;4.23;2.00;;;3.60;99.90;;;;;;5059293;28;20213;-64
2022/04/11 02:35:27;;;;;;;3.60;1.57;;;3.60;99.90;;;;;;5053896;28;20221;-64
2022/04/11 02:37:53;;;;;;;5.10;1.80;;;3.50;99.90;;;;;;5063058;28;20231;-65
2022/04/11 02:40:19;;;;;;;10.70;2.00;;;3.50;99.90;;;;;;5054598;28;20214;-64
2022/04/11 02:42:45;;;;;;;3.67;2.20;;;3.50;99.90;;;;;;5063650;28;20246;-65
2022/04/11 02:45:12;;;;;;;5.23;1.70;;;3.50;99.90;;;;;;5065186;28;20276;-66
2022/04/11 02:47:38;;;;;;;2.97;1.77;;;3.40;99.90;;;;;;5052606;28;20270;-64
2022/04/11 02:50:05;;;;;;;2.27;2.03;;;3.40;99.90;;;;;;5057540;28;20202;-65
2022/04/11 02:52:30;;;;;;;6.30;2.13;;;3.40;99.90;;;;;;5053635;28;20253;-64
2022/04/11 02:54:56;;;;;;;4.57;2.10;;;3.50;99.90;;;;;;5065774;28;20224;-64
2022/04/11 02:57:23;;;;;;;5.23;2.97;;;3.40;99.90;;;;;;5055322;28;20197;-64
2022/04/11 02:59:49;;;;;;;5.13;2.40;;;3.30;99.90;;;;;;5057988;28;20833;-63
2022/04/11 03:02:14;;;;;;;5.43;2.10;;;3.30;99.90;;;;;;5054002;28;20565;-62
2022/04/11 03:04:40;;;;;;;7.07;2.47;;;3.30;99.90;;;;;;5060589;28;20189;-63
2022/04/11 03:07:06;;;;;;;6.83;2.17;;;3.30;99.90;;;;;;5059192;28;20191;-62
2022/04/11 03:09:31;;;;;;;6.73;3.10;;;3.30;99.90;;;;;;5056409;28;20453;-62
2022/04/11 03:11:57;;;;;;;7.07;2.20;;;3.20;99.90;;;;;;5049219;28;20201;-65
2022/04/11 03:14:23;;;;;;;4.20;2.50;;;3.20;99.90;;;;;;5050673;28;20548;-63
2022/04/11 03:16:48;;;;;;;3.70;2.33;;;3.20;99.90;;;;;;5049389;28;20236;-63
2022/04/11 03:19:14;;;;;;;2.43;2.23;;;3.20;99.90;;;;;;5052238;28;20678;-62
2022/04/11 03:21:39;;;;;;;7.17;2.33;;;3.20;99.90;;;;;;5050998;28;20257;-63
2022/04/11 03:24:05;;;;;;;5.27;2.40;;;3.20;99.90;;;;;;5065397;28;20262;-64
2022/04/11 03:26:31;;;;;;;8.57;2.83;;;3.20;99.90;;;;;;5055801;28;20206;-63
2022/04/11 03:28:56;;;;;;;3.97;1.93;;;3.20;99.90;;;;;;5049045;28;20206;-66
2022/04/11 03:31:22;;;;;;;6.90;2.43;;;3.20;99.90;;;;;;5053394;28;20192;-64
2022/04/11 03:33:47;;;;;;;2.70;2.10;;;3.20;99.90;;;;;;5051974;28;20223;-64
2022/04/11 03:36:13;;;;;;;5.17;1.83;;;3.20;99.90;;;;;;5057361;28;20189;-64
2022/04/11 03:38:38;;;;;;;4.27;2.00;;;3.10;99.90;;;;;;5046574;28;20201;-63
2022/04/11 03:41:04;;;;;;;2.63;2.20;;;3.20;99.90;;;;;;5058876;28;20274;-63
2022/04/11 03:43:29;;;;;;;4.57;1.77;;;3.10;99.90;;;;;;5055145;28;20426;-64
2022/04/11 03:45:55;;;;;;;4.87;2.23;;;3.10;99.90;;;;;;5059020;28;20229;-64
2022/04/11 03:48:20;;;;;;;7.30;2.73;;;3.10;99.90;;;;;;5046651;28;20201;-64
2022/04/11 03:50:46;;;;;;;4.23;2.00;;;3.00;99.90;;;;;;5047937;28;20310;-64
2022/04/11 03:53:12;;;;;;;3.27;2.50;;;3.00;99.90;;;;;;5062676;28;20236;-65
2022/04/11 03:55:37;;;;;;;4.13;1.97;;;3.00;99.90;;;;;;5064448;28;20721;-64
2022/04/11 03:58:03;;;;;;;6.67;2.97;;;3.00;99.90;;;;;;5064520;28;20201;-65
2022/04/11 04:00:28;;;;;;;2.47;2.27;;;3.10;99.90;;;;;;5067159;28;20214;-65
2022/04/11 04:03:07;;;;;;;7.00;2.43;;;3.00;99.90;;;;;;5065991;28;20685;-65
2022/04/11 04:05:38;;;;;;;4.53;2.50;;;3.00;99.90;;;;;;5055297;28;20235;-65
2022/04/11 04:08:04;;;;;;;4.63;2.70;;;3.00;99.90;;;;;;5059245;28;20197;-64
2022/04/11 04:10:29;;;;;;;5.17;3.07;;;2.90;99.90;;;;;;5066462;28;20246;-62
2022/04/11 04:13:01;;;;;;;3.93;2.47;;;2.90;99.90;;;;;;5057437;28;20302;-65
2022/04/11 04:15:26;;;;;;;5.83;3.07;;;3.00;99.90;;;;;;5060513;28;20936;-65
2022/04/11 04:17:53;;;;;;;3.13;2.70;;;3.00;99.90;;;;;;5053475;28;20206;-65
2022/04/11 04:20:18;;;;;;;7.90;2.63;;;3.00;99.90;;;;;;5068450;28;20219;-65
2022/04/11 04:22:44;;;;;;;2.83;2.63;;;3.00;99.90;;;;;;5066500;28;20709;-65
2022/04/11 04:25:09;;;;;;;4.23;2.77;;;3.00;99.90;;;;;;5061124;28;20683;-65
2022/04/11 04:27:35;;;;;;;3.90;2.73;;;3.00;99.90;;;;;;5055244;28;20206;-65
2022/04/11 04:30:00;;;;;;;6.27;3.20;;;3.10;99.90;;;;;;5054881;28;20698;-65
2022/04/11 04:32:27;;;;;;;3.37;2.40;;;3.10;99.90;;;;;;5066213;28;20693;-65
2022/04/11 04:34:52;;;;;;;4.17;2.73;;;3.10;99.90;;;;;;5051586;28;20197;-66
2022/04/11 04:37:18;;;;;;;7.07;3.13;;;3.10;99.90;;;;;;5052250;28;20639;-65
2022/04/11 04:39:43;;;;;;;3.27;2.87;;;3.10;99.90;;;;;;5067670;28;20184;-65
2022/04/11 04:42:09;;;;;;;6.50;3.60;;;3.10;99.90;;;;;;5066503;28;20558;-65
2022/04/11 04:44:40;;;;;;;6.30;3.40;;;3.10;99.90;;;;;;5051537;28;20360;-64
2022/04/11 04:47:06;;;;;;;5.47;4.00;;;3.10;99.90;;;;;;5065594;28;20618;-66
2022/04/11 04:49:32;;;;;;;3.10;2.70;;;3.10;99.90;;;;;;5068299;28;20245;-66
2022/04/11 04:51:57;;;;;;;5.10;2.60;;;3.10;99.90;;;;;;5056543;28;20238;-64
2022/04/11 04:54:23;;;;;;;4.47;2.87;;;3.10;99.90;;;;;;5047373;28;20166;-66
2022/04/11 04:56:49;;;;;;;4.33;3.00;;;3.10;99.90;;;;;;5059993;28;20240;-65
2022/04/11 04:59:15;;;;;;;7.07;2.73;;;3.20;99.90;;;;;;5054188;28;20193;-66
2022/04/11 05:01:40;;;;;;;3.73;3.00;;;3.20;99.90;;;;;;5064542;28;20213;-65
2022/04/11 05:04:06;;;;;;;5.87;3.20;;;3.20;99.90;;;;;;5060166;28;20552;-65
2022/04/11 05:06:31;;;;;;;8.93;3.37;;;3.30;99.90;;;;;;5051543;28;20197;-65
2022/04/11 05:08:57;;;;;;;7.70;2.80;;;3.30;99.90;;;;;;5063330;28;20201;-65
2022/04/11 05:11:22;;;;;;;3.77;2.50;;;3.30;99.90;;;;;;5059400;28;20189;-65
2022/04/11 05:13:48;;;;;;;2.83;2.60;;;3.30;99.90;;;;;;5054735;28;20552;-66
2022/04/11 05:16:15;;;;;;;8.57;4.53;;;3.30;99.90;;;;;;5066454;28;20723;-64
2022/04/11 05:18:41;;;;;;;4.70;2.93;;;3.30;99.90;;;;;;5052329;28;20228;-64
2022/04/11 05:21:06;;;;;;;4.93;3.27;;;3.40;99.90;;;;;;5057913;28;20990;-64
2022/04/11 05:23:32;;;;;;;8.20;3.37;;;3.40;99.90;;;;;;5051163;28;20273;-64
2022/04/11 05:25:57;;;;;;;3.83;3.17;;;3.50;99.90;;;;;;5062507;28;20990;-64
2022/04/11 05:28:23;;;;;;;5.53;3.07;;;3.40;99.90;;;;;;5048485;28;20205;-64
2022/04/11 05:30:48;;;;;;;6.67;3.27;;;3.50;99.90;;;;;;5050813;28;20194;-64
2022/04/11 05:33:15;;;;;;;3.93;3.53;;;3.50;99.90;;;;;;5050336;28;20308;-65
2022/04/11 05:35:40;;;;;;;7.20;3.20;;;3.50;99.90;;;;;;5052501;28;20196;-65
2022/04/11 05:38:06;;;;;;;8.27;3.10;;;3.60;99.90;;;;;;5054644;28;20252;-64
2022/04/11 05:40:32;;;;;;;7.70;2.70;;;3.60;99.90;;;;;;5052822;28;20758;-64
2022/04/11 05:42:58;;;;;;;5.70;3.93;;;3.60;99.90;;;;;;5062957;28;20189;-64
2022/04/11 05:45:23;;;;;;;8.93;3.83;;;3.70;99.90;;;;;;5054544;28;20199;-64
2022/04/11 05:47:49;;;;;;;7.20;3.13;;;3.70;99.90;;;;;;5065506;28;20284;-65
2022/04/11 05:50:14;;;;;;;5.00;2.90;;;3.70;99.90;;;;;;5044916;28;20197;-64
2022/04/11 05:52:40;;;;;;;4.63;3.37;;;3.80;99.90;;;;;;5013614;28;1039655;-64
2022/04/11 05:55:06;;;;;;;9.80;3.90;;;3.80;99.90;;;;;;5053067;28;20730;-64
2022/04/11 05:57:31;;;;;;;4.50;3.57;;;3.90;99.90;;;;;;5059596;28;20248;-64
2022/04/11 05:59:56;;;;;;;11.53;3.93;;;3.90;99.90;;;;;;5054164;28;20556;-64
2022/04/11 06:02:22;;;;;;;7.53;3.60;;;4.00;99.90;;;;;;5066844;28;20236;-64
2022/04/11 06:04:47;;;;;;;6.10;3.47;;;4.10;99.90;;;;;;5053263;28;20194;-64
2022/04/11 06:07:13;;;;;;;6.40;3.63;;;4.20;99.90;;;;;;5051540;28;20555;-64
2022/04/11 06:09:39;;;;;;;8.77;3.10;;;4.30;99.90;;;;;;5052102;28;20194;-64
2022/04/11 06:12:05;;;;;;;9.53;3.03;;;4.30;99.90;;;;;;5058036;28;20194;-64
2022/04/11 06:14:30;;;;;;;4.53;3.33;;;4.40;99.90;;;;;;5054841;28;20608;-64
2022/04/11 06:16:56;;;;;;;4.27;3.30;;;4.50;99.90;;;;;;5054297;28;20191;-65
2022/04/11 06:19:21;;;;;;;6.53;3.07;;;4.50;99.90;;;;;;5053725;28;20194;-63
2022/04/11 06:21:47;;;;;;;3.57;3.30;;;4.60;99.90;;;;;;5049228;28;20206;-66
2022/04/11 06:24:12;;;;;;;10.30;3.60;;;4.70;99.90;;;;;;5047413;28;20214;-64
2022/04/11 06:26:38;;;;;;;4.17;2.60;;;4.70;99.90;;;;;;5053328;28;20217;-64
2022/04/11 06:29:04;;;;;;;6.33;2.40;;;4.80;99.90;;;;;;5058162;28;20653;-63
2022/04/11 06:31:29;;;;;;;6.77;2.50;;;4.80;99.90;;;;;;5054788;28;20624;-63
2022/04/11 06:33:54;;;;;;;8.07;2.80;;;4.80;99.90;;;;;;5048914;28;20230;-63
2022/04/11 06:36:20;;;;;;;6.97;2.87;;;5.00;99.90;;;;;;5064269;28;20213;-63
2022/04/11 06:38:45;;;;;;;3.63;3.27;;;5.10;99.90;;;;;;5054268;28;20198;-64
2022/04/11 06:41:11;;;;;;;5.00;2.43;;;5.20;99.90;;;;;;5050530;28;20300;-63
2022/04/11 06:43:37;;;;;;;6.03;3.07;;;5.20;99.90;;;;;;5057486;28;20221;-63
2022/04/11 06:46:02;;;;;;;7.30;2.93;;;5.20;99.90;;;;;;5048950;28;20194;-65
2022/04/11 06:48:28;;;;;;;4.77;2.50;;;5.20;99.90;;;;;;5054910;28;20644;-64
2022/04/11 06:50:53;;;;;;;7.50;3.50;;;5.30;99.90;;;;;;5052833;28;20197;-65
2022/04/11 06:53:20;;;;;;;4.50;2.70;;;5.40;99.90;;;;;;5046357;28;20222;-64
2022/04/11 06:55:47;;;;;;;5.57;3.63;;;5.50;99.90;;;;;;5046345;28;20206;-65
2022/04/11 06:58:14;;;;;;;7.57;2.53;;;5.70;99.90;;;;;;5063626;28;20212;-63
2022/04/11 07:00:40;;;;;;;5.97;2.27;;;5.80;99.90;;;;;;5055117;28;20206;-64
2022/04/11 07:03:05;;;;;;;3.40;2.53;;;5.80;99.90;;;;;;5055759;28;20867;-63
2022/04/11 07:05:31;;;;;;;7.77;2.70;;;5.80;99.90;;;;;;5065719;28;20280;-65
2022/04/11 07:07:56;;;;;;;3.83;2.57;;;5.90;99.90;;;;;;5062277;28;20202;-64
2022/04/11 07:10:22;;;;;;;8.67;3.13;;;6.00;99.90;;;;;;5064896;28;20213;-64
2022/04/11 07:12:47;;;;;;;3.57;2.77;;;6.10;99.90;;;;;;5048332;28;20198;-64
2022/04/11 07:15:12;;;;;;;4.17;1.90;;;6.10;99.90;;;;;;5054326;28;20664;-63
2022/04/11 07:17:38;;;;;;;4.10;2.37;;;6.30;99.90;;;;;;5044138;28;20210;-64
2022/04/11 07:20:04;;;;;;;3.63;2.13;;;6.30;99.90;;;;;;5063683;28;20238;-64
2022/04/11 07:22:30;;;;;;;4.97;2.03;;;6.30;99.90;;;;;;5055275;28;20199;-63
2022/04/11 07:24:55;;;;;;;3.37;2.00;;;6.30;99.90;;;;;;5064822;28;20558;-64
2022/04/11 07:27:21;;;;;;;2.10;2.00;;;6.30;99.90;;;;;;5063222;28;20213;-65
2022/04/11 07:29:46;;;;;;;5.47;1.80;;;6.50;99.90;;;;;;5059828;28;20206;-65
2022/04/11 07:32:12;;;;;;;4.30;1.93;;;6.50;99.90;;;;;;5058585;28;20656;-66
2022/04/11 07:34:37;;;;;;;3.40;1.70;;;6.60;99.90;;;;;;5056727;28;20289;-65
2022/04/11 07:37:04;;;;;;;3.37;2.13;;;6.70;99.80;;;;;;5054025;28;20205;-64
2022/04/11 07:39:30;;;;;;;5.17;1.63;;;6.60;99.30;;;;;;5064641;28;20214;-64
2022/04/11 07:41:55;;;;;;;4.07;1.73;;;6.80;98.70;;;;;;5063466;28;21042;-64
2022/04/11 07:44:22;;;;;;;2.77;1.80;;;6.90;99.40;;;;;;5054382;28;20198;-65
2022/04/11 07:46:48;;;;;;;3.43;1.57;;;7.00;99.00;;;;;;5056021;28;20202;-64
2022/04/11 07:49:14;;;;;;;2.20;1.60;;;6.90;98.60;;;;;;5060853;28;20734;-63
2022/04/11 07:51:40;;;;;;;3.53;1.83;;;6.90;98.50;;;;;;5059743;28;20592;-64
2022/04/11 07:54:05;;;;;;;4.20;1.70;;;6.80;98.60;;;;;;5064808;28;20186;-63
2022/04/11 07:56:31;;;;;;;3.10;1.70;;;6.90;98.50;;;;;;5059614;28;20647;-65
2022/04/11 07:58:56;;;;;;;3.57;1.70;;;7.00;98.30;;;;;;5064409;28;20193;-65
2022/04/11 08:01:22;;;;;;;4.73;1.60;;;7.10;98.30;;;;;;5059857;28;20221;-65
2022/04/11 08:03:48;;;;;;;2.60;1.67;;;7.20;97.40;;;;;;5064525;28;20644;-65
2022/04/11 08:06:14;;;;;;;3.13;1.47;;;7.20;97.00;;;;;;5059772;28;20300;-65
2022/04/11 08:08:47;;;;;;;3.73;2.10;;;7.20;96.60;;;;;;5064506;28;20182;-64
2022/04/11 08:11:15;;;;;;;1.60;1.50;;;7.20;96.90;;;;;;5059171;28;20213;-64
2022/04/11 08:13:40;;;;;;;4.57;1.40;;;7.30;96.20;;;;;;5053752;28;20194;-64
2022/04/11 08:16:06;;;;;;;2.77;1.23;;;7.40;95.30;;;;;;5058503;28;20186;-68
2022/04/11 08:18:31;;;;;;;1.93;1.63;;;7.50;95.10;;;;;;5064788;28;20208;-68
2022/04/11 08:20:57;;;;;;;4.60;1.80;;;7.50;95.40;;;;;;5060092;28;20210;-66
2022/04/11 08:23:23;;;;;;;1.87;1.73;;;7.50;94.90;;;;;;5063154;28;20181;-67
2022/04/11 08:25:49;;;;;;;2.87;1.97;;;7.80;95.40;;;;;;5061088;28;20237;-68
2022/04/11 08:28:15;;;;;;;3.70;1.87;;;7.80;94.70;;;;;;5062202;28;20267;-66
2022/04/11 08:30:41;;;;;;;2.70;1.67;;;7.80;94.50;;;;;;5061101;28;20194;-68
2022/04/11 08:33:06;;;;;;;6.50;1.93;;;7.80;93.90;;;;;;5059700;28;20190;-67
2022/04/11 08:35:32;;;;;;;2.70;1.40;;;7.70;93.90;;;;;;5062715;28;20193;-67
2022/04/11 08:37:58;;;;;;;4.23;2.03;;;7.80;92.30;;;;;;5060965;28;20574;-67
2022/04/11 08:40:23;;;;;;;2.00;1.43;;;8.00;93.80;;;;;;5058986;28;20206;-67
2022/04/11 08:42:50;;;;;;;1.80;1.03;;;8.20;93.50;;;;;;5060542;28;20657;-67
2022/04/11 08:45:18;;;;;;;3.50;1.30;;;8.30;93.10;;;;;;5064266;28;20532;-68
2022/04/11 08:47:45;;;;;;;1.97;1.40;;;8.30;91.00;;;;;;5065189;28;20201;-69
2022/04/11 08:50:12;;;;;;;2.43;1.50;;;8.40;91.60;;;;;;5065048;28;20641;-66
2022/04/11 08:52:38;;;;;;;1.50;1.10;;;8.40;90.80;;;;;;5063135;28;20218;-68
2022/04/11 08:55:04;;;;;;;2.70;1.33;;;8.50;90.70;;;;;;5066651;28;20186;-68
2022/04/11 08:57:30;;;;;;;3.07;1.53;;;8.60;88.70;;;;;;5062388;28;20281;-68
2022/04/11 09:00:00;;;;;;;4.07;1.50;;;8.40;89.40;;;;;;5066386;28;20268;-69
2022/04/11 09:02:33;;;;;;;1.53;1.03;;;8.50;89.80;;;;;;5065110;28;20656;-69
2022/04/11 09:04:59;;;;;;;3.67;1.00;;;8.40;87.80;;;;;;5064481;28;20258;-68
2022/04/11 09:07:25;;;;;;;2.00;1.10;;;8.30;87.70;;;;;;5062781;28;20198;-69
2022/04/11 09:09:50;;;;;;;0.87;0.87;;;8.30;86.40;;;;;;5064800;28;20187;-69
2022/04/11 09:12:20;;;;;;;3.80;1.23;;;8.30;85.00;;;;;;5063596;28;20720;-69
2022/04/11 09:14:55;;;;;;;2.73;0.97;;;8.50;85.00;;;;;;5063696;28;20190;-68
2022/04/11 09:17:24;;;;;;;2.17;0.93;;;8.80;83.90;;;;;;5065571;28;20201;-68
2022/04/11 09:20:07;;;;;;;1.33;1.20;;;8.60;79.90;;;;;;5064553;28;20201;-69
2022/04/11 09:22:33;;;;;;;3.63;0.87;;;8.70;80.80;;;;;;5046624;28;20550;-68
2022/04/11 09:25:11;;;;;;;1.80;0.90;;;8.90;80.60;;;;;;5049903;28;20206;-68
2022/04/11 09:27:37;;;;;;;2.27;1.10;;;9.10;80.10;;;;;;5064688;28;20253;-67
2022/04/11 09:30:21;;;;;;;1.20;1.10;;;9.00;76.60;;;;;;5057935;28;20201;-75
2022/04/11 09:33:13;;;;;;;2.33;1.27;;;9.20;74.90;;;;;;5063273;28;20194;-70
2022/04/11 09:35:41;;;;;;;1.10;1.10;;;9.40;76.20;;;;;;5063255;28;20182;-73
2022/04/11 09:38:10;;;;;;;1.73;1.53;;;9.50;75.30;;;;;;5065620;28;20205;-75
2022/04/11 09:40:42;;;;;;;2.37;0.73;;;9.60;71.50;;;;;;5064102;28;20221;-71
2022/04/11 09:43:09;;;;;;;1.73;1.33;;;9.50;71.00;;;;;;5064290;28;20186;-72
2022/04/11 09:45:48;;;;;;;1.30;1.10;;;9.50;72.30;;;;;;5063853;28;20194;-72
2022/04/11 09:48:22;;;;;;;1.10;1.00;;;9.50;74.20;;;;;;5065103;28;20195;-71
2022/04/11 09:50:49;;;;;;;5.17;1.03;;;9.70;71.00;;;;;;5065973;28;20190;-69
2022/04/11 09:53:19;;;;;;;1.30;1.03;;;9.80;70.60;;;;;;5045839;28;20218;-71
2022/04/11 09:55:48;;;;;;;0.70;0.70;;;9.80;72.50;;;;;;5061974;28;20198;-71
2022/04/11 09:58:14;;;;;;;2.00;0.93;;;9.70;70.30;;;;;;5065138;28;20202;-72
2022/04/11 10:00:42;;;;;;;1.37;0.97;;;9.90;70.20;;;;;;5059575;28;20263;-74
2022/04/11 10:03:08;;;;;;;1.03;0.80;;;9.80;70.90;;;;;;5057321;28;20260;-72
2022/04/11 10:05:39;;;;;;;1.93;1.10;;;9.90;70.50;;;;;;5053276;28;20194;-71
2022/04/11 10:08:07;;;;;;;2.57;1.27;;;9.80;69.70;;;;;;5063649;28;20237;-70
2022/04/11 10:10:34;;;;;;;4.83;0.90;;;10.20;72.20;;;;;;5058644;28;20202;-69
2022/04/11 10:13:01;;;;;;;3.57;1.10;;;10.30;68.60;;;;;;5055965;28;20217;-74
2022/04/11 10:15:27;;;;;;;6.57;1.53;;;10.70;67.80;;;;;;5065711;28;20243;-74
2022/04/11 10:17:54;;;;;;;2.70;1.50;;;10.70;67.80;;;;;;5062304;28;20201;-69
2022/04/11 10:20:28;;;;;;;1.20;0.80;;;10.50;66.60;;;;;;5062482;28;20900;-74
2022/04/11 10:23:28;;;;;;;0.83;0.80;;;10.50;65.10;;;;;;5060489;28;20226;-72
2022/04/11 10:25:57;;;;;;;3.57;1.07;;;10.60;65.20;;;;;;5061573;28;20587;-70
2022/04/11 10:28:27;;;;;;;2.30;1.60;;;10.80;63.80;;;;;;5060574;28;20184;-67
2022/04/11 10:31:09;;;;;;;1.83;1.43;;;10.80;63.40;;;;;;5053387;28;20221;-68
2022/04/11 10:33:41;;;;;;;2.13;1.17;;;10.60;64.10;;;;;;5055825;28;20192;-67
2022/04/11 10:36:34;;;;;;;3.03;1.60;;;10.60;63.10;;;;;;5051003;28;20211;-72
2022/04/11 10:39:15;;;;;;;3.40;1.40;;;10.60;61.00;;;;;;5065318;28;20190;-63
2022/04/11 10:41:56;;;;;;;2.57;1.40;;;10.60;60.70;;;;;;5051188;28;20218;-66
2022/04/11 10:44:33;;;;;;;2.43;1.50;;;10.60;61.10;;;;;;5062696;28;20187;-63
2022/04/11 10:47:21;;;;;;;2.20;1.67;;;10.60;61.70;;;;;;5061282;28;20202;-65
2022/04/11 10:49:58;;;;;;;2.37;1.67;;;10.80;61.80;;;;;;5063078;28;20534;-65
2022/04/11 10:52:27;;;;;;;2.83;2.00;;;11.00;60.90;;;;;;5062113;28;20212;-64
2022/04/11 10:55:05;;;;;;;1.20;1.10;;;11.00;61.30;;;;;;5064100;28;20264;-65
2022/04/11 10:57:44;;;;;;;4.00;1.50;;;10.80;61.50;;;;;;5062370;28;20207;-65
2022/04/11 11:00:14;;;;;;;2.23;1.50;;;10.90;61.50;;;;;;5065098;28;20182;-64
2022/04/11 11:02:52;;;;;;;1.73;1.10;;;11.00;61.50;;;;;;5062524;28;20207;-65
2022/04/11 11:05:36;;;;;;;1.27;1.17;;;10.80;60.70;;;;;;5065172;28;20201;-62
2022/04/11 11:08:23;;;;;;;1.70;1.60;;;10.80;61.10;;;;;;5061277;28;20749;-63
2022/04/11 11:10:53;;;;;;;4.47;1.90;;;10.70;60.00;;;;;;5054179;28;20196;-63
2022/04/11 11:13:43;;;;;;;2.90;1.63;;;10.70;60.20;;;;;;5049545;28;20665;-61
2022/04/11 11:16:10;;;;;;;3.97;1.30;;;10.80;61.70;;;;;;5060185;28;20641;-61
2022/04/11 11:18:48;;;;;;;2.97;1.30;;;10.90;61.90;;;;;;5054804;28;20188;-61
2022/04/11 11:21:19;;;;;;;2.87;1.70;;;10.60;61.10;;;;;;5050101;28;20280;-61
2022/04/11 11:24:03;;;;;;;4.33;1.17;;;10.50;61.80;;;;;;5065801;28;20301;-63
2022/04/11 11:26:46;;;;;;;2.27;1.57;;;10.70;61.00;;;;;;5052101;28;20199;-62
2022/04/11 11:29:15;;;;;;;1.33;1.23;;;10.50;61.20;;;;;;5056677;28;20188;-62
2022/04/11 11:31:41;;;;;;;4.70;1.93;;;10.60;61.90;;;;;;5052037;28;20248;-61
2022/04/11 11:34:11;;;;;;;2.30;1.47;;;10.90;62.20;;;;;;5060279;28;20575;-63
2022/04/11 11:36:37;;;;;;;3.13;1.30;;;10.90;62.90;;;;;;5055697;28;20963;-61
2022/04/11 11:39:12;;;;;;;4.63;1.57;;;11.00;62.50;;;;;;5047025;28;20208;-62
2022/04/11 11:41:42;;;;;;;4.00;1.60;;;10.90;61.90;;;;;;5049819;28;20218;-62
2022/04/11 11:44:09;;;;;;;2.37;1.30;;;10.90;62.80;;;;;;5054008;28;20187;-64
2022/04/11 11:46:51;;;;;;;2.27;1.77;;;10.70;63.30;;;;;;5055012;28;20196;-61
2022/04/11 11:49:17;;;;;;;1.70;1.30;;;11.00;62.80;;;;;;5064605;28;20185;-62
2022/04/11 11:51:43;;;;;;;3.17;1.30;;;11.60;64.10;;;;;;5055493;28;20233;-60
2022/04/11 11:54:09;;;;;;;3.37;1.57;;;11.80;61.40;;;;;;5060357;28;20190;-60
2022/04/11 11:56:45;;;;;;;1.60;1.50;;;11.60;62.40;;;;;;5050193;28;20250;-61
2022/04/11 11:59:12;;;;;;;3.67;1.63;;;12.00;63.10;;;;;;5049940;28;20184;-65
2022/04/11 12:01:41;;;;;;;4.07;1.53;;;12.40;61.20;;;;;;5062812;28;20247;-68
2022/04/11 12:04:19;;;;;;;5.03;1.60;;;12.50;59.50;;;;;;5062660;28;20538;-62
2022/04/11 12:06:45;;;;;;;2.87;1.50;;;12.40;58.70;;;;;;5055232;28;20321;-62
2022/04/11 12:09:11;;;;;;;3.33;1.20;;;12.70;58.40;;;;;;5057772;28;20190;-63
2022/04/11 12:11:37;;;;;;;1.87;1.43;;;12.80;57.40;;;;;;5053447;28;20655;-60
2022/04/11 12:14:08;;;;;;;2.67;1.50;;;12.80;57.90;;;;;;5050447;28;20190;-61
2022/04/11 12:16:55;;;;;;;2.57;1.30;;;13.20;58.10;;;;;;5052965;28;20202;-63
2022/04/11 12:19:35;;;;;;;3.20;1.40;;;13.00;57.30;;;;;;5057640;28;20275;-62
2022/04/11 12:22:16;;;;;;;2.13;1.50;;;12.90;58.30;;;;;;5064697;28;20246;-61
2022/04/11 12:24:42;;;;;;;2.90;1.50;;;12.40;58.00;;;;;;5064600;28;20213;-61
2022/04/11 12:27:13;;;;;;;4.27;1.57;;;11.90;59.60;;;;;;5054942;28;20240;-62
2022/04/11 12:29:40;;;;;;;2.77;1.57;;;12.20;59.70;;;;;;5058568;28;20189;-62
2022/04/11 12:32:15;;;;;;;3.00;1.83;;;12.10;59.20;;;;;;5059299;28;20208;-62
2022/04/11 12:34:45;;;;;;;2.07;1.80;;;12.20;59.10;;;;;;5060854;28;20323;-61
2022/04/11 12:37:13;;;;;;;4.07;1.50;;;12.00;59.90;;;;;;5058672;28;20208;-62
2022/04/11 12:39:56;;;;;;;3.57;2.00;;;12.00;60.40;;;;;;5056834;28;20295;-60
2022/04/11 12:42:23;;;;;;;2.17;1.70;;;11.70;59.40;;;;;;5057599;28;20244;-61
2022/04/11 12:44:59;;;;;;;3.70;1.87;;;12.50;60.00;;;;;;5058311;28;20202;-62
2022/04/11 12:47:25;;;;;;;5.07;1.67;;;13.10;58.40;;;;;;5055637;28;20202;-62
2022/04/11 12:49:53;;;;;;;2.83;1.50;;;14.20;57.40;;;;;;5060854;28;20183;-63
2022/04/11 12:52:20;;;;;;;1.83;1.40;;;14.80;56.10;;;;;;5060296;28;20328;-61
2022/04/11 12:54:48;;;;;;;5.80;1.47;;;15.50;56.20;;;;;;5062401;28;20332;-63
2022/04/11 12:57:32;;;;;;;3.83;1.87;;;16.10;51.50;;;;;;5066010;28;20684;-62
2022/04/11 13:00:15;;;;;;;4.13;1.80;;;14.60;50.70;;;;;;5067466;28;20578;-62